createdAt,value
2023-01-07T00:01:16.907Z,73.81
2023-01-07T00:03:44.471Z,73.34
2023-01-07T00:06:14.998Z,73.40
2023-01-07T00:08:43.630Z,72.48
2023-01-07T00:11:13.178Z,73.03
2023-01-07T00:13:40.123Z,73.69
2023-01-07T00:16:09.832Z,73.75
2023-01-07T00:18:37.312Z,74.35
2023-01-07T00:21:07.111Z,74.98
2023-01-07T00:23:35.254Z,74.77
2023-01-07T00:26:12.578Z,75.50
2023-01-07T00:28:41.261Z,75.77
2023-01-07T00:31:19.973Z,76.35
2023-01-07T00:33:56.658Z,76.32
2023-01-07T00:36:24.738Z,77.17
2023-01-07T00:38:59.152Z,77.76
2023-01-07T00:41:26.330Z,77.98
2023-01-07T00:43:52.979Z,78.50
2023-01-07T00:46:19.688Z,78.49
2023-01-07T00:48:46.364Z,78.15
2023-01-07T00:51:14.535Z,78.36
2023-01-07T00:53:41.928Z,78.85
2023-01-07T00:56:12.849Z,78.89
2023-01-07T00:58:39.553Z,79.20
2023-01-07T01:01:06.412Z,79.88
2023-01-07T01:03:33.765Z,80.11
2023-01-07T01:06:06.045Z,80.37
2023-01-07T01:08:32.685Z,80.43
2023-01-07T01:11:07.006Z,80.23
2023-01-07T01:13:34.582Z,80.60
2023-01-07T01:16:01.601Z,81.34
2023-01-07T01:18:28.415Z,81.81
2023-01-07T01:20:55.139Z,82.50
2023-01-07T01:23:22.364Z,82.74
2023-01-07T01:25:48.999Z,82.66
2023-01-07T01:28:15.704Z,82.86
2023-01-07T01:30:42.276Z,83.52
2023-01-07T01:33:08.906Z,83.31
2023-01-07T01:35:39.835Z,83.85
2023-01-07T01:38:06.756Z,83.79
2023-01-07T01:40:33.375Z,84.36
2023-01-07T01:43:00.029Z,85.04
2023-01-07T01:45:27.073Z,85.35
2023-01-07T01:48:04.929Z,85.89
2023-01-07T01:50:38.572Z,86.16
2023-01-07T01:53:27.481Z,86.77
2023-01-07T01:56:01.179Z,86.79
2023-01-07T01:58:33.540Z,86.44
2023-01-07T02:01:00.377Z,86.76
2023-01-07T02:03:30.283Z,86.77
2023-01-07T02:05:57.506Z,86.91
2023-01-07T02:08:24.200Z,86.42
2023-01-07T02:11:19.523Z,85.86
2023-01-07T02:14:18.800Z,85.04
2023-01-07T02:16:51.357Z,84.55
2023-01-07T02:19:33.518Z,84.63
2023-01-07T02:22:13.871Z,84.75
2023-01-07T02:25:18.747Z,85.00
2023-01-07T02:27:54.243Z,85.00
2023-01-07T02:30:51.922Z,84.96
2023-01-07T02:33:40.986Z,84.97
2023-01-07T02:36:13.629Z,85.10
2023-01-07T02:39:00.187Z,85.39
2023-01-07T02:41:54.498Z,85.18
2023-01-07T02:44:39.782Z,85.31
2023-01-07T02:47:12.097Z,85.04
2023-01-07T02:49:38.700Z,85.38
2023-01-07T02:52:23.688Z,84.93
2023-01-07T02:54:59.736Z,85.26
2023-01-07T02:57:35.290Z,85.23
2023-01-07T03:00:08.045Z,85.11
2023-01-07T03:03:20.456Z,85.02
2023-01-07T03:06:31.521Z,85.15
2023-01-07T03:09:28.174Z,84.88
2023-01-07T03:12:05.403Z,85.01
2023-01-07T03:14:48.281Z,84.73
2023-01-07T03:17:21.587Z,84.50
2023-01-07T03:19:55.061Z,84.11
2023-01-07T03:22:25.361Z,84.21
2023-01-07T03:24:54.573Z,84.16
2023-01-07T03:27:23.221Z,83.88
2023-01-07T03:29:52.912Z,83.29
2023-01-07T03:32:25.820Z,82.85
2023-01-07T03:34:52.723Z,82.75
2023-01-07T03:37:23.465Z,82.22
2023-01-07T03:39:51.029Z,82.72
2023-01-07T03:42:41.531Z,83.04
2023-01-07T03:45:12.948Z,83.58
2023-01-07T03:47:43.237Z,82.79
2023-01-07T03:50:10.705Z,83.38
2023-01-07T03:52:37.567Z,83.67
2023-01-07T03:55:05.070Z,83.95
2023-01-07T03:57:32.651Z,84.03
2023-01-07T03:59:59.404Z,83.79
2023-01-07T04:02:26.371Z,84.60
2023-01-07T04:04:53.628Z,84.82
2023-01-07T04:07:20.219Z,85.43
2023-01-07T04:09:47.338Z,85.62
2023-01-07T04:12:14.354Z,85.66
2023-01-07T04:14:40.904Z,86.43
2023-01-07T04:17:07.509Z,86.74
2023-01-07T04:19:34.271Z,87.02
2023-01-07T04:22:00.944Z,87.50
2023-01-07T04:24:27.487Z,87.42
2023-01-07T04:26:54.098Z,87.10
2023-01-07T04:29:21.068Z,87.17
2023-01-07T04:31:47.829Z,87.24
2023-01-07T04:34:14.447Z,87.87
2023-01-07T04:36:41.136Z,87.98
2023-01-07T04:39:07.746Z,88.86
2023-01-07T04:41:34.457Z,88.28
2023-01-07T04:44:01.056Z,88.43
2023-01-07T04:46:27.745Z,88.53
2023-01-07T04:48:54.399Z,88.44
2023-01-07T04:51:21.054Z,88.86
2023-01-07T04:53:48.186Z,89.01
2023-01-07T04:56:14.873Z,89.43
2023-01-07T04:58:41.893Z,89.54
2023-01-07T05:01:08.964Z,89.90
2023-01-07T05:03:35.740Z,89.88
2023-01-07T05:06:03.179Z,89.79
2023-01-07T05:08:30.168Z,89.76
2023-01-07T05:10:56.900Z,90.33
2023-01-07T05:13:24.368Z,90.62
2023-01-07T05:15:50.998Z,91.04
2023-01-07T05:18:17.697Z,91.20
2023-01-07T05:20:46.425Z,91.09
2023-01-07T05:23:13.062Z,91.29
2023-01-07T05:25:39.794Z,91.39
2023-01-07T05:28:06.534Z,91.81
2023-01-07T05:30:33.221Z,92.10
2023-01-07T05:32:59.900Z,91.75
2023-01-07T05:35:26.510Z,91.97
2023-01-07T05:37:53.132Z,91.70
2023-01-07T05:40:19.760Z,91.56
2023-01-07T05:42:46.357Z,91.85
2023-01-07T05:45:13.008Z,92.09
2023-01-07T05:47:39.667Z,92.43
2023-01-07T05:50:06.608Z,92.33
2023-01-07T05:52:33.251Z,92.20
2023-01-07T05:54:59.842Z,91.89
2023-01-07T05:57:26.387Z,92.21
2023-01-07T05:59:52.982Z,92.24
2023-01-07T06:02:19.557Z,92.40
2023-01-07T06:04:46.220Z,92.62
2023-01-07T06:07:12.992Z,92.39
2023-01-07T06:09:39.572Z,92.17
2023-01-07T06:12:07.338Z,91.62
2023-01-07T06:14:33.928Z,92.06
2023-01-07T06:17:00.498Z,91.78
2023-01-07T06:19:28.389Z,91.94
2023-01-07T06:21:54.938Z,92.12
2023-01-07T06:24:21.537Z,91.87
2023-01-07T06:26:48.261Z,91.50
2023-01-07T06:29:15.015Z,91.60
2023-01-07T06:31:41.646Z,91.99
2023-01-07T06:34:08.386Z,92.10
2023-01-07T06:36:35.051Z,91.93
2023-01-07T06:39:01.644Z,91.80
2023-01-07T06:41:28.214Z,91.57
2023-01-07T06:43:54.909Z,91.37
2023-01-07T06:46:21.630Z,91.04
2023-01-07T06:48:48.341Z,90.52
2023-01-07T06:51:14.964Z,89.71
2023-01-07T06:53:41.597Z,88.99
2023-01-07T06:56:08.279Z,88.53
2023-01-07T06:58:34.879Z,88.67
2023-01-07T07:01:08.432Z,88.46
2023-01-07T07:03:35.393Z,88.48
2023-01-07T07:06:02.149Z,87.77
2023-01-07T07:08:28.780Z,87.83
2023-01-07T07:10:55.399Z,87.11
2023-01-07T07:13:22.179Z,86.62
2023-01-07T07:15:49.893Z,86.74
2023-01-07T07:18:19.753Z,86.55
2023-01-07T07:20:47.517Z,86.02
2023-01-07T07:23:14.182Z,85.99
2023-01-07T07:25:40.891Z,85.00
2023-01-07T07:28:07.540Z,83.42
2023-01-07T07:30:47.064Z,82.28
2023-01-07T07:33:16.073Z,81.36
2023-01-07T07:35:42.664Z,80.62
2023-01-07T07:38:09.399Z,78.48
2023-01-07T07:40:36.364Z,77.70
2023-01-07T07:43:11.024Z,78.01
2023-01-07T07:45:40.318Z,77.59
2023-01-07T07:48:08.256Z,76.08
2023-01-07T07:50:35.969Z,76.69
2023-01-07T07:53:02.751Z,74.18
2023-01-07T07:55:29.437Z,73.24
2023-01-07T07:57:58.292Z,71.52
2023-01-07T08:02:51.840Z,71.61
2023-01-07T08:05:18.558Z,71.46
2023-01-07T08:07:45.171Z,70.99
2023-01-07T08:10:11.808Z,69.68
2023-01-07T08:12:39.141Z,71.12
2023-01-07T08:15:07.334Z,70.68
2023-01-07T08:17:36.222Z,70.35
2023-01-07T08:20:07.647Z,70.31
2023-01-07T08:22:34.744Z,69.73
2023-01-07T08:25:01.825Z,65.58
2023-01-07T08:27:29.154Z,65.99
2023-01-07T08:29:56.707Z,66.42
2023-01-07T08:32:23.319Z,65.77
2023-01-07T08:34:50.030Z,65.70
2023-01-07T08:37:16.848Z,64.25
2023-01-07T08:39:43.454Z,61.09
2023-01-07T08:42:10.003Z,59.59
2023-01-07T08:44:36.638Z,61.45
2023-01-07T08:47:03.258Z,60.51
2023-01-07T08:49:29.928Z,61.97
2023-01-07T08:51:56.552Z,62.49
2023-01-07T08:54:23.154Z,63.74
2023-01-07T08:56:49.886Z,64.44
2023-01-07T08:59:16.550Z,64.17
2023-01-07T09:01:43.231Z,64.32
2023-01-07T09:04:10.019Z,61.49
2023-01-07T09:06:36.588Z,58.80
2023-01-07T09:09:03.361Z,57.36
2023-01-07T09:11:29.964Z,56.21
2023-01-07T09:13:56.551Z,55.53
2023-01-07T09:16:23.302Z,55.32
2023-01-07T09:18:50.437Z,55.02
2023-01-07T09:21:17.098Z,52.97
2023-01-07T09:23:43.725Z,53.26
2023-01-07T09:26:10.345Z,52.80
2023-01-07T09:28:36.972Z,52.42
2023-01-07T09:31:04.325Z,49.40
2023-01-07T09:33:31.213Z,45.76
2023-01-07T09:35:57.826Z,45.97
2023-01-07T09:38:24.420Z,46.48
2023-01-07T09:40:51.706Z,45.56
2023-01-07T09:43:58.670Z,44.35
2023-01-07T09:46:28.851Z,42.97
2023-01-07T09:49:01.294Z,43.60
2023-01-07T09:51:37.337Z,42.39
2023-01-07T09:54:07.099Z,41.59
2023-01-07T09:56:36.458Z,41.47
2023-01-07T09:59:05.636Z,42.52
2023-01-07T10:01:35.173Z,42.03
2023-01-07T10:04:01.773Z,39.65
2023-01-07T10:06:51.445Z,37.04
2023-01-07T10:09:36.327Z,38.23
2023-01-07T10:12:39.420Z,37.41
2023-01-07T10:15:09.069Z,37.24
2023-01-07T10:17:47.882Z,40.30
2023-01-07T10:20:35.747Z,37.42
2023-01-07T10:23:09.222Z,36.75
2023-01-07T10:25:43.317Z,35.77
2023-01-07T10:28:48.819Z,35.98
2023-01-07T10:31:21.613Z,35.03
2023-01-07T10:33:49.585Z,34.21
2023-01-07T10:36:28.729Z,33.93
2023-01-07T10:39:15.919Z,32.97
2023-01-07T10:42:02.733Z,33.03
2023-01-07T10:45:00.321Z,35.71
2023-01-07T10:47:38.783Z,34.07
2023-01-07T10:50:24.590Z,31.75
2023-01-07T10:53:05.475Z,30.33
2023-01-07T10:55:38.098Z,29.81
2023-01-07T10:58:04.995Z,30.65
2023-01-07T11:00:32.793Z,28.88
2023-01-07T11:03:00.074Z,27.73
2023-01-07T11:05:36.087Z,27.18
2023-01-07T11:08:04.980Z,26.82
2023-01-07T11:10:36.525Z,27.54
2023-01-07T11:13:08.807Z,26.02
2023-01-07T11:15:40.767Z,27.02
2023-01-07T11:18:16.718Z,28.08
2023-01-07T11:20:54.011Z,27.17
2023-01-07T11:23:38.801Z,25.14
2023-01-07T11:26:08.253Z,25.16
2023-01-07T11:28:35.222Z,23.79
2023-01-07T11:31:02.525Z,22.97
2023-01-07T11:34:03.419Z,24.17
2023-01-07T11:36:55.777Z,26.73
2023-01-07T11:39:25.403Z,25.00
2023-01-07T11:42:00.653Z,24.29
2023-01-07T11:44:27.371Z,23.86
2023-01-07T11:46:55.043Z,24.14
2023-01-07T11:49:44.888Z,24.92
2023-01-07T11:52:19.784Z,25.46
2023-01-07T11:54:52.668Z,24.11
2023-01-07T11:57:25.551Z,25.46
2023-01-07T12:00:06.254Z,25.25
2023-01-07T12:02:32.990Z,25.32
2023-01-07T12:05:26.362Z,24.93
2023-01-07T12:07:54.508Z,25.13
2023-01-07T12:10:34.248Z,27.13
2023-01-07T12:13:03.946Z,26.54
2023-01-07T12:15:46.783Z,25.79
2023-01-07T12:18:33.473Z,25.81
2023-01-07T12:21:22.868Z,25.79
2023-01-07T12:24:11.080Z,26.97
2023-01-07T12:27:04.451Z,26.78
2023-01-07T12:29:48.399Z,26.92
2023-01-07T12:32:42.563Z,26.49
2023-01-07T12:35:25.463Z,27.43
2023-01-07T12:38:36.604Z,26.53
2023-01-07T12:41:10.855Z,27.17
2023-01-07T12:43:43.085Z,27.72
2023-01-07T12:46:16.544Z,27.83
2023-01-07T12:48:46.479Z,29.02
2023-01-07T12:51:31.244Z,26.54
2023-01-07T12:54:48.640Z,27.01
2023-01-07T12:57:28.163Z,27.55
2023-01-07T13:00:13.556Z,27.25
2023-01-07T13:03:04.017Z,26.14
2023-01-07T13:05:42.803Z,28.90
2023-01-07T13:08:18.449Z,29.82
2023-01-07T13:11:14.381Z,30.00
2023-01-07T13:13:47.402Z,31.00
2023-01-07T13:16:14.789Z,31.11
2023-01-07T13:18:41.516Z,30.14
2023-01-07T13:21:12.686Z,30.52
2023-01-07T13:24:00.658Z,31.03
2023-01-07T13:26:45.488Z,30.69
2023-01-07T13:29:30.512Z,30.21
2023-01-07T13:31:59.942Z,29.59
2023-01-07T13:34:53.088Z,29.91
2023-01-07T13:37:41.424Z,29.93
2023-01-07T13:40:17.705Z,31.70
2023-01-07T13:43:07.320Z,33.09
2023-01-07T13:45:37.034Z,32.55
2023-01-07T13:48:08.168Z,32.49
2023-01-07T13:50:45.270Z,32.10
2023-01-07T13:53:14.728Z,31.63
2023-01-07T13:55:43.971Z,30.99
2023-01-07T13:58:58.324Z,32.42
2023-01-07T14:01:33.607Z,34.50
2023-01-07T14:04:03.387Z,36.49
2023-01-07T14:06:30.222Z,38.05
2023-01-07T14:08:58.772Z,39.71
2023-01-07T14:11:32.625Z,41.07
2023-01-07T14:14:05.430Z,41.46
2023-01-07T14:16:39.946Z,43.26
2023-01-07T14:19:37.479Z,43.21
2023-01-07T14:22:41.815Z,44.10
2023-01-07T14:25:08.360Z,45.04
2023-01-07T14:27:50.444Z,46.21
2023-01-07T14:30:20.766Z,46.26
2023-01-07T14:32:56.457Z,47.35
2023-01-07T14:35:31.451Z,47.43
2023-01-07T14:37:58.239Z,47.70
2023-01-07T14:40:30.458Z,48.61
2023-01-07T14:42:57.871Z,48.87
2023-01-07T14:45:36.740Z,50.55
2023-01-07T14:48:29.410Z,51.35
2023-01-07T14:51:21.964Z,51.81
2023-01-07T14:53:59.945Z,52.42
2023-01-07T14:56:43.622Z,52.86
2023-01-07T14:59:15.858Z,53.29
2023-01-07T15:02:15.698Z,53.94
2023-01-07T15:05:07.128Z,54.87
2023-01-07T15:07:38.210Z,55.94
2023-01-07T15:10:42.495Z,56.58
2023-01-07T15:13:39.329Z,56.92
2023-01-07T15:16:11.656Z,58.26
2023-01-07T15:18:51.025Z,58.81
2023-01-07T15:21:55.664Z,59.62
2023-01-07T15:24:53.600Z,60.53
2023-01-07T15:27:20.102Z,60.47
2023-01-07T15:30:16.457Z,61.86
2023-01-07T15:33:12.260Z,62.31
2023-01-07T15:35:43.082Z,63.73
2023-01-07T15:38:38.281Z,63.85
2023-01-07T15:41:05.101Z,63.84
2023-01-07T15:43:32.107Z,64.80
2023-01-07T15:46:01.364Z,64.77
2023-01-07T15:48:28.178Z,65.21
2023-01-07T15:50:55.409Z,64.77
2023-01-07T15:53:25.784Z,65.51
2023-01-07T15:56:10.369Z,65.46
2023-01-07T15:58:44.900Z,66.24
2023-01-07T16:01:21.677Z,66.92
2023-01-07T16:03:51.493Z,66.67
2023-01-07T16:06:36.153Z,67.16
2023-01-07T16:09:18.798Z,67.33
2023-01-07T16:11:45.690Z,67.70
2023-01-07T16:14:17.990Z,67.90
2023-01-07T16:16:45.104Z,67.93
2023-01-07T16:19:18.059Z,68.08
2023-01-07T16:21:55.916Z,67.97
2023-01-07T16:24:22.901Z,67.94
2023-01-07T16:26:52.954Z,68.40
2023-01-07T16:29:27.122Z,68.05
2023-01-07T16:31:54.714Z,68.91
2023-01-07T16:34:24.433Z,68.76
2023-01-07T16:37:00.009Z,68.71
2023-01-07T16:39:38.758Z,69.05
2023-01-07T16:42:22.747Z,69.64
2023-01-07T16:44:55.186Z,69.69
2023-01-07T16:47:22.849Z,70.36
2023-01-07T16:49:50.767Z,70.69
2023-01-07T16:52:19.408Z,70.87
2023-01-07T16:54:47.756Z,71.22
2023-01-07T16:57:14.559Z,70.74
2023-01-07T16:59:45.729Z,71.24
2023-01-07T17:02:30.836Z,71.63
2023-01-07T17:05:11.020Z,71.32
2023-01-07T17:07:38.777Z,71.54
2023-01-07T17:10:06.267Z,71.36
2023-01-07T17:12:37.514Z,71.57
2023-01-07T17:15:28.618Z,71.83
2023-01-07T17:18:15.129Z,72.02
2023-01-07T17:20:53.022Z,72.54
2023-01-07T17:23:26.151Z,72.87
2023-01-07T17:25:58.814Z,73.27
2023-01-07T17:28:28.476Z,73.28
2023-01-07T17:30:55.359Z,73.74
2023-01-07T17:33:24.115Z,73.98
2023-01-07T17:35:51.765Z,73.90
2023-01-07T17:38:19.056Z,74.65
2023-01-07T17:40:46.771Z,74.26
2023-01-07T17:43:36.985Z,74.87
2023-01-07T17:46:09.354Z,74.74
2023-01-07T17:48:36.506Z,74.71
2023-01-07T17:51:04.650Z,74.74
2023-01-07T17:53:42.627Z,75.43
2023-01-07T17:56:09.435Z,75.67
2023-01-07T17:58:38.046Z,75.25
2023-01-07T18:01:08.253Z,75.73
2023-01-07T18:03:34.929Z,76.09
2023-01-07T18:06:02.123Z,76.14
2023-01-07T18:08:28.924Z,75.76
2023-01-07T18:11:15.433Z,76.29
2023-01-07T18:13:42.194Z,76.75
2023-01-07T18:16:16.628Z,77.31
2023-01-07T18:18:43.235Z,77.22
2023-01-07T18:21:11.811Z,77.34
2023-01-07T18:23:38.714Z,77.11
2023-01-07T18:26:06.202Z,77.49
2023-01-07T18:28:32.883Z,77.69
2023-01-07T18:30:59.503Z,77.75
2023-01-07T18:33:26.140Z,77.17
2023-01-07T18:35:53.596Z,78.04
2023-01-07T18:38:20.157Z,77.51
2023-01-07T18:40:46.762Z,77.40
2023-01-07T18:43:14.943Z,77.09
2023-01-07T18:45:43.389Z,76.62
2023-01-07T18:48:11.743Z,77.50
2023-01-07T18:50:46.416Z,77.72
2023-01-07T18:53:13.321Z,77.18
2023-01-07T18:55:41.650Z,77.15
2023-01-07T18:58:09.959Z,77.14
2023-01-07T19:00:36.637Z,77.05
2023-01-07T19:03:03.574Z,77.68
2023-01-07T19:05:30.643Z,77.69
2023-01-07T19:07:57.397Z,77.33
2023-01-07T19:10:25.687Z,77.51
2023-01-07T19:12:52.674Z,77.37
2023-01-07T19:15:19.534Z,77.77
2023-01-07T19:17:46.084Z,78.37
2023-01-07T19:20:15.301Z,78.22
2023-01-07T19:22:42.217Z,78.37
2023-01-07T19:25:09.203Z,78.73
2023-01-07T19:27:35.939Z,78.82
2023-01-07T19:30:02.690Z,78.67
2023-01-07T19:32:30.486Z,78.58
2023-01-07T19:34:57.122Z,79.02
2023-01-07T19:37:23.732Z,79.18
2023-01-07T19:39:50.353Z,79.30
2023-01-07T19:42:16.950Z,79.77
2023-01-07T19:44:43.652Z,79.91
2023-01-07T19:47:10.479Z,79.80
2023-01-07T19:49:37.162Z,79.80
2023-01-07T19:52:03.916Z,79.79
2023-01-07T19:54:30.566Z,80.49
2023-01-07T19:56:57.245Z,80.30
2023-01-07T19:59:25.015Z,79.83
2023-01-07T20:01:53.660Z,80.66
2023-01-07T20:04:20.553Z,80.92
2023-01-07T20:06:47.897Z,80.84
2023-01-07T20:09:14.546Z,81.05
2023-01-07T20:11:43.063Z,80.97
2023-01-07T20:14:10.657Z,81.28
2023-01-07T20:16:39.546Z,81.41
2023-01-07T20:19:06.798Z,81.04
2023-01-07T20:21:33.657Z,80.69
2023-01-07T20:24:00.482Z,81.02
2023-01-07T20:26:30.119Z,81.26
2023-01-07T20:28:58.804Z,81.10
2023-01-07T20:31:27.447Z,81.16
2023-01-07T20:33:57.735Z,81.27
2023-01-07T20:36:30.039Z,81.50
2023-01-07T20:38:57.081Z,81.55
2023-01-07T20:41:26.267Z,81.66
2023-01-07T20:43:55.562Z,82.01
2023-01-07T20:46:23.154Z,81.48
2023-01-07T20:48:50.297Z,81.56
2023-01-07T20:51:17.409Z,81.78
2023-01-07T20:53:44.774Z,82.18
2023-01-07T20:56:12.532Z,82.16
2023-01-07T20:58:39.682Z,82.68
2023-01-07T21:01:10.266Z,82.67
2023-01-07T21:03:38.858Z,82.88
2023-01-07T21:06:10.199Z,82.17
2023-01-07T21:08:37.427Z,82.49
2023-01-07T21:11:04.616Z,82.36
2023-01-07T21:13:31.220Z,82.83
2023-01-07T21:16:05.587Z,83.20
2023-01-07T21:18:33.676Z,83.51
2023-01-07T21:21:02.086Z,83.45
2023-01-07T21:23:28.783Z,83.94
2023-01-07T21:25:55.375Z,83.94
2023-01-07T21:28:21.989Z,84.00
2023-01-07T21:30:48.639Z,84.36
2023-01-07T21:33:15.692Z,83.96
2023-01-07T21:35:42.330Z,83.75
2023-01-07T21:38:09.026Z,83.80
2023-01-07T21:40:38.256Z,83.76
2023-01-07T21:43:04.840Z,83.66
2023-01-07T21:45:31.481Z,83.76
2023-01-07T21:47:58.152Z,84.16
2023-01-07T21:50:24.715Z,84.03
2023-01-07T21:52:51.297Z,84.08
2023-01-07T21:55:18.042Z,84.21
2023-01-07T21:57:44.685Z,84.53
2023-01-07T22:00:11.990Z,84.71
2023-01-07T22:02:38.620Z,84.47
2023-01-07T22:05:05.619Z,84.64
2023-01-07T22:07:32.245Z,84.43
2023-01-07T22:09:58.915Z,84.92
2023-01-07T22:12:25.800Z,84.43
2023-01-07T22:14:52.392Z,84.78
2023-01-07T22:17:19.076Z,85.78
2023-01-07T22:19:45.683Z,85.84
2023-01-07T22:22:12.281Z,86.44
2023-01-07T22:24:38.887Z,86.41
2023-01-07T22:27:05.454Z,86.68
2023-01-07T22:29:32.798Z,86.48
2023-01-07T22:31:59.440Z,86.73
2023-01-07T22:34:26.101Z,86.88
2023-01-07T22:37:01.484Z,87.24
2023-01-07T22:39:36.539Z,87.11
2023-01-07T22:42:10.603Z,87.21
2023-01-07T22:44:45.457Z,87.38
2023-01-07T22:47:17.188Z,87.52
2023-01-07T22:49:44.395Z,87.66
2023-01-07T22:52:11.918Z,87.82
2023-01-07T22:54:39.572Z,88.29
2023-01-07T22:57:08.586Z,87.87
2023-01-07T22:59:35.854Z,88.31
2023-01-07T23:02:02.679Z,88.36
2023-01-07T23:04:29.721Z,88.70
2023-01-07T23:06:56.354Z,88.29
2023-01-07T23:09:22.976Z,88.42
2023-01-07T23:11:50.655Z,88.75
2023-01-07T23:14:19.857Z,88.63
2023-01-07T23:16:46.862Z,88.65
2023-01-07T23:19:14.143Z,88.83
2023-01-07T23:21:44.626Z,88.87
2023-01-07T23:24:12.618Z,89.07
2023-01-07T23:26:40.213Z,89.06
2023-01-07T23:29:07.185Z,89.23
2023-01-07T23:31:35.279Z,89.51
2023-01-07T23:34:02.254Z,90.20
2023-01-07T23:36:28.873Z,89.77
2023-01-07T23:38:55.684Z,89.76
2023-01-07T23:41:22.267Z,89.83
2023-01-07T23:43:49.561Z,89.61
2023-01-07T23:46:16.664Z,89.40
2023-01-07T23:48:43.314Z,89.15
2023-01-07T23:51:18.182Z,89.06
2023-01-07T23:53:45.845Z,89.36
2023-01-07T23:56:13.444Z,89.71
2023-01-07T23:58:40.242Z,89.76
